European Highlander — C6SN6 — position and weather

sailwx.info

Track history (hours):
 
Tides and Currents Weather Stations Pressure Air Temp Water Temp Dewpoint Dewpoint Depression Visibility Wind Speed Wind Dir Waves Ship Positions

European Highlander

Operator: P&O Irish Sea Ltd

Last reported at 2020-Jul-02 03:52 UTC. Time now 2020-Jul-02 16:40 UTC.
Position N 54°57' W 005°23'.

Length 161 m; draft 5.5 m.

Type: Ship. MMSI: 311404000.

Date/timePositionNaut miles runAvg speedWind from/ knotsBaromVisibWave heightAir tempDewpointWater temp
2020-Jul-02 03:52N 54°57' W 005°23'917.6
2020-Jul-02 03:21N 54°53' W 005°38'6 5.7
2020-Jul-02 02:16N 54°51' W 005°48'21 7.5
2020-Jul-01 23:29N 55°00' W 005°16'5 0.7
2020-Jul-01 15:52N 54°58' W 005°23'16 1.5
2020-Jul-01 05:11N 54°51' W 005°48'1613.5
2020-Jul-01 03:59N 54°58' W 005°23'10 0.8
2020-Jun-30 15:26N 54°53' W 005°37'1 0.1
2020-Jun-30 03:27N 54°54' W 005°37'7 6.0
2020-Jun-30 02:20N 54°51' W 005°48'0 0.0
2020-Jun-30 00:26N 54°51' W 005°48'0 0.0
2020-Jun-29 22:55N 54°51' W 005°48'  
2020-Jun-27 16:13N 54°60' W 005°14'21 1.6
2020-Jun-27 02:28N 54°51' W 005°48'0 0.0
2020-Jun-27 01:58N 54°51' W 005°48'0 0.0
2020-Jun-27 00:58N 54°51' W 005°48'0 0.0
2020-Jun-26 23:00N 54°51' W 005°48'14 1.9
2020-Jun-26 15:54N 54°57' W 005°26'14 2.7
2020-Jun-26 10:58N 54°51' W 005°48'22 1.2
2020-Jun-25 16:21N 55°00' W 005°13'6 0.5
2020-Jun-25 04:00N 54°57' W 005°23'1515.5
2020-Jun-25 03:00N 54°51' W 005°48'0 0.1
2020-Jun-25 02:00N 54°51' W 005°48'0 0.0
2020-Jun-25 01:30N 54°51' W 005°48'0 0.0
2020-Jun-25 00:00N 54°51' W 005°48'5 0.6
2020-Jun-24 15:28N 54°53' W 005°40'5 1.4
2020-Jun-24 11:51N 54°51' W 005°48'0 0.0
2020-Jun-24 11:09N 54°51' W 005°48'17 2.3
2020-Jun-24 03:59N 54°58' W 005°22'1616.1
2020-Jun-24 02:57N 54°51' W 005°48'0 0.2
2020-Jun-24 02:23N 54°51' W 005°48'0 0.0
2020-Jun-24 00:59N 54°51' W 005°48'0 0.0
2020-Jun-23 13:05N 54°51' W 005°48'0 0.1
2020-Jun-23 10:53N 54°51' W 005°48'16 2.3
2020-Jun-23 04:00N 54°58' W 005°22'1615.6
2020-Jun-23 02:59N 54°51' W 005°48'0 0.0
2020-Jun-23 01:29N 54°51' W 005°48'0 0.0
2020-Jun-22 23:29N 54°51' W 005°48'21 2.9
2020-Jun-22 16:17N 55°00' W 005°15'21 9.5
2020-Jun-22 14:04N 54°51' W 005°48'  
Track history (hours):
 
Tides and Currents Weather Stations Pressure Air Temp Water Temp Dewpoint Dewpoint Depression Visibility Wind Speed Wind Dir Waves Ship Positions

European Highlander

Operator: P&O Irish Sea Ltd

Last reported at 2020-Jul-02 03:52 UTC. Time now 2020-Jul-02 16:40 UTC.
Position N 54°57' W 005°23'.

Length 161 m; draft 5.5 m.

Type: Ship. MMSI: 311404000.

Date/timePositionNaut miles runAvg speedWind from/ knotsBaromVisibWave heightAir tempDewpointWater temp
2020-Jul-02 03:52N 54°57' W 005°23'917.6
2020-Jul-02 03:21N 54°53' W 005°38'6 5.7
2020-Jul-02 02:16N 54°51' W 005°48'21 7.5
2020-Jul-01 23:29N 55°00' W 005°16'5 0.7
2020-Jul-01 15:52N 54°58' W 005°23'16 1.5
2020-Jul-01 05:11N 54°51' W 005°48'1613.5
2020-Jul-01 03:59N 54°58' W 005°23'10 0.8
2020-Jun-30 15:26N 54°53' W 005°37'1 0.1
2020-Jun-30 03:27N 54°54' W 005°37'7 6.0
2020-Jun-30 02:20N 54°51' W 005°48'0 0.0
2020-Jun-30 00:26N 54°51' W 005°48'0 0.0
2020-Jun-29 22:55N 54°51' W 005°48'  
2020-Jun-27 16:13N 54°60' W 005°14'21 1.6
2020-Jun-27 02:28N 54°51' W 005°48'0 0.0
2020-Jun-27 01:58N 54°51' W 005°48'0 0.0
2020-Jun-27 00:58N 54°51' W 005°48'0 0.0
2020-Jun-26 23:00N 54°51' W 005°48'14 1.9
2020-Jun-26 15:54N 54°57' W 005°26'14 2.7
2020-Jun-26 10:58N 54°51' W 005°48'22 1.2
2020-Jun-25 16:21N 55°00' W 005°13'6 0.5
2020-Jun-25 04:00N 54°57' W 005°23'1515.5
2020-Jun-25 03:00N 54°51' W 005°48'0 0.1
2020-Jun-25 02:00N 54°51' W 005°48'0 0.0
2020-Jun-25 01:30N 54°51' W 005°48'0 0.0
2020-Jun-25 00:00N 54°51' W 005°48'5 0.6
2020-Jun-24 15:28N 54°53' W 005°40'5 1.4
2020-Jun-24 11:51N 54°51' W 005°48'0 0.0
2020-Jun-24 11:09N 54°51' W 005°48'17 2.3
2020-Jun-24 03:59N 54°58' W 005°22'1616.1
2020-Jun-24 02:57N 54°51' W 005°48'0 0.2
2020-Jun-24 02:23N 54°51' W 005°48'0 0.0
2020-Jun-24 00:59N 54°51' W 005°48'0 0.0
2020-Jun-23 13:05N 54°51' W 005°48'0 0.1
2020-Jun-23 10:53N 54°51' W 005°48'16 2.3
2020-Jun-23 04:00N 54°58' W 005°22'1615.6
2020-Jun-23 02:59N 54°51' W 005°48'0 0.0
2020-Jun-23 01:29N 54°51' W 005°48'0 0.0
2020-Jun-22 23:29N 54°51' W 005°48'21 2.9
2020-Jun-22 16:17N 55°00' W 005°15'21 9.5
2020-Jun-22 14:04N 54°51' W 005°48'  

Dump ship's entire track history